Airfield :
LOGIN :

Register | Disclaimer

   EN    FR    IT 

 










Legend :    VFR   Marginal VFR   IFR   Intensive IFR   Very Intensive IFR
Visi :
Ceiling :
>= 8 km
>= 3000ft
5 to 8 km
1000 to 3000 ft
1500m to 5 km
500 to 1000 ft
800 to 1500m
200 to 500 ft
< 800m
< 200 ft
Symbols :   Thunderstorms  Fog  Heavy snow  Heavy precipitations  Wind > 20 kt
SIGMETs :     Misc.  Thunderstorms  Icing  Turbulence  Mountain Waves  Volcanic Ashes






- Airport Elevation : 870 ft
- IATA code : ETZ


LFJL - Metz Nancy Lorraine

CURRENT METAR :
  • 191430Z AUTO 23005KT 200V270 9999 OVC039 17/13 Q1014 TEMPO FEW025TCU

EXPIRED METARs :
  • 191400Z AUTO 20004KT 150V240 9999 BKN025 OVC035 16/13 Q1014 TEMPO FEW025TCU
  • 191330Z AUTO 21003KT 180V240 9999 SCT015 OVC022 16/13 Q1014 TEMPO FEW025TCU
  • 191300Z AUTO 22003KT 160V260 9999 SCT016 OVC024 16/13 Q1014 TEMPO BKN010
  • 191230Z AUTO VRB02KT 9999 OVC019 16/13 Q1014 TEMPO BKN010
  • 191200Z AUTO VRB02KT 9999 3100 OVC017 16/13 Q1014 TEMPO BKN010

TAF TAF LFJL
Valid from the 19 at 12:00 until the 20 at 12:00 UTC


191100Z 1912/2012 17009KT 9999 BKN025
TEMPO 1912/2006 BKN010
PROB30
TEMPO 1915/2006 -SHRA FEW025TCU



MET'MAP, your aeronautical weather chart ! - Copyright ORBIFLY December 2007 - Disclaimer

ORBIFLY MET'MAP TEAM :

Programming & Development : Alexandra Zaïnal
Concept & original design : Baudouin d'Aumeries
Assistance for programming : Marc-Olivier Méhu
Technical & hardware support : Manuel Goepfert

Contact : metmap@orbifly.com




SOURCES & CREDITS :

   NOAA